sensor_id;sensor_type;location;lat;lon;timestamp;temperature;humidity
69533;DHT22;56729;52.036;5.332;2022-09-16T00:00:03;12.80;95.80
69533;DHT22;56729;52.036;5.332;2022-09-16T00:01:13;12.70;95.60
69533;DHT22;56729;52.036;5.332;2022-09-16T00:02:16;12.70;95.60
69533;DHT22;56729;52.036;5.332;2022-09-16T00:03:18;12.70;95.60
69533;DHT22;56729;52.036;5.332;2022-09-16T00:04:20;12.70;95.70
69533;DHT22;56729;52.036;5.332;2022-09-16T00:05:23;12.60;95.70
69533;DHT22;56729;52.036;5.332;2022-09-16T00:06:27;12.70;96.00
69533;DHT22;56729;52.036;5.332;2022-09-16T00:07:29;12.60;96.10
69533;DHT22;56729;52.036;5.332;2022-09-16T00:08:32;12.60;96.20
69533;DHT22;56729;52.036;5.332;2022-09-16T00:09:36;12.60;96.00
69533;DHT22;56729;52.036;5.332;2022-09-16T00:10:39;12.60;95.90
69533;DHT22;56729;52.036;5.332;2022-09-16T00:11:41;12.60;95.80
69533;DHT22;56729;52.036;5.332;2022-09-16T00:12:43;12.60;95.90
69533;DHT22;56729;52.036;5.332;2022-09-16T00:13:45;12.60;96.10
69533;DHT22;56729;52.036;5.332;2022-09-16T00:14:47;12.60;96.30
69533;DHT22;56729;52.036;5.332;2022-09-16T00:15:49;12.70;96.60
69533;DHT22;56729;52.036;5.332;2022-09-16T00:16:52;12.70;96.40
69533;DHT22;56729;52.036;5.332;2022-09-16T00:17:54;12.70;96.20
69533;DHT22;56729;52.036;5.332;2022-09-16T00:18:58;12.70;96.00
69533;DHT22;56729;52.036;5.332;2022-09-16T00:20:00;12.70;96.20
69533;DHT22;56729;52.036;5.332;2022-09-16T00:21:07;12.70;96.40
69533;DHT22;56729;52.036;5.332;2022-09-16T00:22:09;12.80;96.50
69533;DHT22;56729;52.036;5.332;2022-09-16T00:23:11;12.80;96.50
69533;DHT22;56729;52.036;5.332;2022-09-16T00:24:13;12.80;96.30
69533;DHT22;56729;52.036;5.332;2022-09-16T00:25:16;12.80;96.10
69533;DHT22;56729;52.036;5.332;2022-09-16T00:26:18;12.80;95.90
69533;DHT22;56729;52.036;5.332;2022-09-16T00:27:20;12.80;95.90
69533;DHT22;56729;52.036;5.332;2022-09-16T00:28:22;12.80;96.00
69533;DHT22;56729;52.036;5.332;2022-09-16T00:29:24;12.80;96.10
69533;DHT22;56729;52.036;5.332;2022-09-16T00:30:26;12.90;96.30
69533;DHT22;56729;52.036;5.332;2022-09-16T00:31:28;12.90;96.30
69533;DHT22;56729;52.036;5.332;2022-09-16T00:32:31;12.90;96.20
69533;DHT22;56729;52.036;5.332;2022-09-16T00:33:33;12.90;96.00
69533;DHT22;56729;52.036;5.332;2022-09-16T00:34:35;12.90;96.00
69533;DHT22;56729;52.036;5.332;2022-09-16T00:35:37;12.90;96.10
69533;DHT22;56729;52.036;5.332;2022-09-16T00:36:38;12.90;96.10
69533;DHT22;56729;52.036;5.332;2022-09-16T00:37:40;12.90;96.10
69533;DHT22;56729;52.036;5.332;2022-09-16T00:38:43;13.00;96.20
69533;DHT22;56729;52.036;5.332;2022-09-16T00:39:49;13.00;96.20
69533;DHT22;56729;52.036;5.332;2022-09-16T00:40:51;13.00;96.20
69533;DHT22;56729;52.036;5.332;2022-09-16T00:41:52;13.10;96.20
69533;DHT22;56729;52.036;5.332;2022-09-16T00:42:54;13.10;96.10
69533;DHT22;56729;52.036;5.332;2022-09-16T00:43:59;13.10;96.10
69533;DHT22;56729;52.036;5.332;2022-09-16T00:45:17;13.20;96.10
69533;DHT22;56729;52.036;5.332;2022-09-16T00:46:24;13.20;96.00
69533;DHT22;56729;52.036;5.332;2022-09-16T00:47:40;13.20;96.00
69533;DHT22;56729;52.036;5.332;2022-09-16T00:48:43;13.20;96.00
69533;DHT22;56729;52.036;5.332;2022-09-16T00:49:45;13.20;95.90
69533;DHT22;56729;52.036;5.332;2022-09-16T00:50:52;13.30;95.90
69533;DHT22;56729;52.036;5.332;2022-09-16T00:51:58;13.30;95.80
69533;DHT22;56729;52.036;5.332;2022-09-16T00:53:03;13.30;95.80
69533;DHT22;56729;52.036;5.332;2022-09-16T00:54:07;13.30;95.60
69533;DHT22;56729;52.036;5.332;2022-09-16T00:55:14;13.30;95.50
69533;DHT22;56729;52.036;5.332;2022-09-16T00:56:19;13.20;95.40
69533;DHT22;56729;52.036;5.332;2022-09-16T00:57:24;13.20;95.50
69533;DHT22;56729;52.036;5.332;2022-09-16T00:58:43;13.20;95.60
69533;DHT22;56729;52.036;5.332;2022-09-16T00:59:52;13.20;95.60
69533;DHT22;56729;52.036;5.332;2022-09-16T01:00:55;13.20;95.70
69533;DHT22;56729;52.036;5.332;2022-09-16T01:02:00;13.20;95.70
69533;DHT22;56729;52.036;5.332;2022-09-16T01:03:04;13.10;95.80
69533;DHT22;56729;52.036;5.332;2022-09-16T01:04:17;13.10;95.90
69533;DHT22;56729;52.036;5.332;2022-09-16T01:05:21;13.10;96.00
69533;DHT22;56729;52.036;5.332;2022-09-16T01:06:26;13.10;96.10
69533;DHT22;56729;52.036;5.332;2022-09-16T01:07:30;13.20;96.20
69533;DHT22;56729;52.036;5.332;2022-09-16T01:08:33;13.10;96.20
69533;DHT22;56729;52.036;5.332;2022-09-16T01:09:37;13.20;96.00
69533;DHT22;56729;52.036;5.332;2022-09-16T01:10:41;13.10;95.90
69533;DHT22;56729;52.036;5.332;2022-09-16T01:11:43;13.10;96.10
69533;DHT22;56729;52.036;5.332;2022-09-16T01:12:53;13.20;96.30
69533;DHT22;56729;52.036;5.332;2022-09-16T01:13:56;13.20;96.40
69533;DHT22;56729;52.036;5.332;2022-09-16T01:15:51;13.20;96.40
69533;DHT22;56729;52.036;5.332;2022-09-16T01:18:46;13.20;96.30
69533;DHT22;56729;52.036;5.332;2022-09-16T01:23:59;13.20;96.00
69533;DHT22;56729;52.036;5.332;2022-09-16T01:26:47;13.10;95.90
69533;DHT22;56729;52.036;5.332;2022-09-16T01:27:57;13.20;95.90
69533;DHT22;56729;52.036;5.332;2022-09-16T01:32:11;13.10;95.90
69533;DHT22;56729;52.036;5.332;2022-09-16T01:34:58;13.00;96.00
69533;DHT22;56729;52.036;5.332;2022-09-16T01:39:23;13.10;96.00
69533;DHT22;56729;52.036;5.332;2022-09-16T01:43:06;12.90;95.90
69533;DHT22;56729;52.036;5.332;2022-09-16T01:45:29;12.80;96.40
69533;DHT22;56729;52.036;5.332;2022-09-16T01:46:42;12.80;96.40
69533;DHT22;56729;52.036;5.332;2022-09-16T01:47:55;12.80;96.60
69533;DHT22;56729;52.036;5.332;2022-09-16T01:51:13;12.80;97.20
69533;DHT22;56729;52.036;5.332;2022-09-16T01:53:20;12.80;97.00
69533;DHT22;56729;52.036;5.332;2022-09-16T01:54:12;12.80;97.10
69533;DHT22;56729;52.036;5.332;2022-09-16T01:55:29;12.80;97.00
69533;DHT22;56729;52.036;5.332;2022-09-16T01:56:49;12.70;97.00
69533;DHT22;56729;52.036;5.332;2022-09-16T01:58:09;12.70;97.00
69533;DHT22;56729;52.036;5.332;2022-09-16T01:59:19;12.70;97.30
69533;DHT22;56729;52.036;5.332;2022-09-16T02:00:24;12.70;97.50
69533;DHT22;56729;52.036;5.332;2022-09-16T02:01:32;12.70;97.60
69533;DHT22;56729;52.036;5.332;2022-09-16T02:02:41;12.70;97.70
69533;DHT22;56729;52.036;5.332;2022-09-16T02:03:49;12.70;97.70
69533;DHT22;56729;52.036;5.332;2022-09-16T02:04:56;12.70;97.50
69533;DHT22;56729;52.036;5.332;2022-09-16T02:06:02;12.70;97.50
69533;DHT22;56729;52.036;5.332;2022-09-16T02:07:06;12.70;97.50
69533;DHT22;56729;52.036;5.332;2022-09-16T02:08:20;12.70;97.60
69533;DHT22;56729;52.036;5.332;2022-09-16T02:09:31;12.70;97.50
69533;DHT22;56729;52.036;5.332;2022-09-16T02:10:39;12.70;97.50
69533;DHT22;56729;52.036;5.332;2022-09-16T02:11:43;12.70;97.50
69533;DHT22;56729;52.036;5.332;2022-09-16T02:12:48;12.70;97.50
69533;DHT22;56729;52.036;5.332;2022-09-16T02:13:53;12.70;97.50
69533;DHT22;56729;52.036;5.332;2022-09-16T02:15:02;12.70;97.40
69533;DHT22;56729;52.036;5.332;2022-09-16T02:16:11;12.70;97.50
69533;DHT22;56729;52.036;5.332;2022-09-16T02:17:17;12.70;97.60
69533;DHT22;56729;52.036;5.332;2022-09-16T02:18:25;12.70;97.60
69533;DHT22;56729;52.036;5.332;2022-09-16T02:19:43;12.70;97.60
69533;DHT22;56729;52.036;5.332;2022-09-16T02:20:47;12.70;97.40
69533;DHT22;56729;52.036;5.332;2022-09-16T02:21:51;12.70;97.40
69533;DHT22;56729;52.036;5.332;2022-09-16T02:23:05;12.70;97.40
69533;DHT22;56729;52.036;5.332;2022-09-16T02:24:12;12.70;97.50
69533;DHT22;56729;52.036;5.332;2022-09-16T02:25:18;12.70;97.60
69533;DHT22;56729;52.036;5.332;2022-09-16T02:26:25;12.70;97.60
69533;DHT22;56729;52.036;5.332;2022-09-16T02:27:28;12.70;97.60
69533;DHT22;56729;52.036;5.332;2022-09-16T02:28:37;12.70;97.80
69533;DHT22;56729;52.036;5.332;2022-09-16T02:29:45;12.70;97.90
69533;DHT22;56729;52.036;5.332;2022-09-16T02:30:52;12.70;97.80
69533;DHT22;56729;52.036;5.332;2022-09-16T02:31:57;12.70;97.80
69533;DHT22;56729;52.036;5.332;2022-09-16T02:33:06;12.70;97.80
69533;DHT22;56729;52.036;5.332;2022-09-16T02:34:31;12.70;97.60
69533;DHT22;56729;52.036;5.332;2022-09-16T02:35:35;12.70;97.20
69533;DHT22;56729;52.036;5.332;2022-09-16T02:36:40;12.60;97.10
69533;DHT22;56729;52.036;5.332;2022-09-16T02:38:08;12.60;97.40
69533;DHT22;56729;52.036;5.332;2022-09-16T02:39:14;12.60;97.50
69533;DHT22;56729;52.036;5.332;2022-09-16T02:40:27;12.60;97.50
69533;DHT22;56729;52.036;5.332;2022-09-16T02:41:30;12.60;97.50
69533;DHT22;56729;52.036;5.332;2022-09-16T02:42:32;12.50;97.40
69533;DHT22;56729;52.036;5.332;2022-09-16T02:43:35;12.60;97.50
69533;DHT22;56729;52.036;5.332;2022-09-16T02:44:37;12.50;97.60
69533;DHT22;56729;52.036;5.332;2022-09-16T02:47:15;12.50;97.90
69533;DHT22;56729;52.036;5.332;2022-09-16T02:49:52;12.50;98.20
69533;DHT22;56729;52.036;5.332;2022-09-16T02:51:27;12.60;98.30
69533;DHT22;56729;52.036;5.332;2022-09-16T02:52:48;12.60;98.30
69533;DHT22;56729;52.036;5.332;2022-09-16T02:54:01;12.60;98.30
69533;DHT22;56729;52.036;5.332;2022-09-16T02:56:33;12.60;98.20
69533;DHT22;56729;52.036;5.332;2022-09-16T02:57:36;12.60;98.20
69533;DHT22;56729;52.036;5.332;2022-09-16T02:58:39;12.60;98.20
69533;DHT22;56729;52.036;5.332;2022-09-16T02:59:41;12.60;98.20
69533;DHT22;56729;52.036;5.332;2022-09-16T03:00:49;12.70;98.20
69533;DHT22;56729;52.036;5.332;2022-09-16T03:01:51;12.70;98.20
69533;DHT22;56729;52.036;5.332;2022-09-16T03:02:53;12.70;98.00
69533;DHT22;56729;52.036;5.332;2022-09-16T03:03:57;12.70;98.00
69533;DHT22;56729;52.036;5.332;2022-09-16T03:05:00;12.70;98.00
69533;DHT22;56729;52.036;5.332;2022-09-16T03:07:10;12.70;98.10
69533;DHT22;56729;52.036;5.332;2022-09-16T03:08:12;12.70;98.10
69533;DHT22;56729;52.036;5.332;2022-09-16T03:09:15;12.70;98.00
69533;DHT22;56729;52.036;5.332;2022-09-16T03:10:19;12.70;98.00
69533;DHT22;56729;52.036;5.332;2022-09-16T03:13:07;12.70;98.10
69533;DHT22;56729;52.036;5.332;2022-09-16T03:16:00;12.60;97.80
69533;DHT22;56729;52.036;5.332;2022-09-16T03:20:07;12.50;98.10
69533;DHT22;56729;52.036;5.332;2022-09-16T03:21:46;12.50;98.10
69533;DHT22;56729;52.036;5.332;2022-09-16T03:27:00;12.50;98.30
69533;DHT22;56729;52.036;5.332;2022-09-16T03:28:15;12.50;98.40
69533;DHT22;56729;52.036;5.332;2022-09-16T03:29:26;12.50;98.50
69533;DHT22;56729;52.036;5.332;2022-09-16T03:30:31;12.50;98.50
69533;DHT22;56729;52.036;5.332;2022-09-16T03:32:59;12.50;98.50
69533;DHT22;56729;52.036;5.332;2022-09-16T03:34:18;12.50;98.50
69533;DHT22;56729;52.036;5.332;2022-09-16T03:35:37;12.50;98.40
69533;DHT22;56729;52.036;5.332;2022-09-16T03:36:49;12.50;98.40
69533;DHT22;56729;52.036;5.332;2022-09-16T03:37:55;12.50;98.40
69533;DHT22;56729;52.036;5.332;2022-09-16T03:38:59;12.50;98.10
69533;DHT22;56729;52.036;5.332;2022-09-16T03:40:06;12.50;97.90
69533;DHT22;56729;52.036;5.332;2022-09-16T03:41:10;12.50;97.80
69533;DHT22;56729;52.036;5.332;2022-09-16T03:42:13;12.40;98.00
69533;DHT22;56729;52.036;5.332;2022-09-16T03:43:15;12.40;98.10
69533;DHT22;56729;52.036;5.332;2022-09-16T03:44:17;12.40;98.20
69533;DHT22;56729;52.036;5.332;2022-09-16T03:45:20;12.50;98.30
69533;DHT22;56729;52.036;5.332;2022-09-16T03:46:26;12.50;98.30
69533;DHT22;56729;52.036;5.332;2022-09-16T03:47:29;12.50;98.40
69533;DHT22;56729;52.036;5.332;2022-09-16T03:48:31;12.50;98.30
69533;DHT22;56729;52.036;5.332;2022-09-16T03:49:34;12.50;98.30
69533;DHT22;56729;52.036;5.332;2022-09-16T03:50:36;12.50;98.30
69533;DHT22;56729;52.036;5.332;2022-09-16T03:51:38;12.50;98.40
69533;DHT22;56729;52.036;5.332;2022-09-16T03:52:40;12.50;98.40
69533;DHT22;56729;52.036;5.332;2022-09-16T03:53:42;12.50;98.40
69533;DHT22;56729;52.036;5.332;2022-09-16T03:54:44;12.50;98.30
69533;DHT22;56729;52.036;5.332;2022-09-16T03:55:48;12.50;98.10
69533;DHT22;56729;52.036;5.332;2022-09-16T03:56:50;12.50;98.10
69533;DHT22;56729;52.036;5.332;2022-09-16T03:57:53;12.50;98.00
69533;DHT22;56729;52.036;5.332;2022-09-16T03:58:55;12.50;98.00
69533;DHT22;56729;52.036;5.332;2022-09-16T03:59:57;12.40;98.10
69533;DHT22;56729;52.036;5.332;2022-09-16T04:00:59;12.40;98.20
69533;DHT22;56729;52.036;5.332;2022-09-16T04:02:01;12.40;98.10
69533;DHT22;56729;52.036;5.332;2022-09-16T04:03:03;12.40;98.00
69533;DHT22;56729;52.036;5.332;2022-09-16T04:04:05;12.40;97.90
69533;DHT22;56729;52.036;5.332;2022-09-16T04:05:07;12.30;97.90
69533;DHT22;56729;52.036;5.332;2022-09-16T04:06:10;12.30;98.20
69533;DHT22;56729;52.036;5.332;2022-09-16T04:07:11;12.30;98.40
69533;DHT22;56729;52.036;5.332;2022-09-16T04:08:13;12.30;98.90
69533;DHT22;56729;52.036;5.332;2022-09-16T04:09:15;12.30;98.50
69533;DHT22;56729;52.036;5.332;2022-09-16T04:10:18;12.30;98.30
69533;DHT22;56729;52.036;5.332;2022-09-16T04:11:19;12.30;98.30
69533;DHT22;56729;52.036;5.332;2022-09-16T04:12:21;12.30;98.50
69533;DHT22;56729;52.036;5.332;2022-09-16T04:13:23;12.30;98.70
69533;DHT22;56729;52.036;5.332;2022-09-16T04:14:25;12.30;99.20
69533;DHT22;56729;52.036;5.332;2022-09-16T04:15:27;12.30;98.80
69533;DHT22;56729;52.036;5.332;2022-09-16T04:16:30;12.30;98.80
69533;DHT22;56729;52.036;5.332;2022-09-16T04:17:32;12.40;98.90
69533;DHT22;56729;52.036;5.332;2022-09-16T04:18:34;12.40;98.80
69533;DHT22;56729;52.036;5.332;2022-09-16T04:19:36;12.40;98.80
69533;DHT22;56729;52.036;5.332;2022-09-16T04:20:38;12.40;98.70
69533;DHT22;56729;52.036;5.332;2022-09-16T04:21:41;12.40;98.60
69533;DHT22;56729;52.036;5.332;2022-09-16T04:22:43;12.40;98.60
69533;DHT22;56729;52.036;5.332;2022-09-16T04:23:44;12.40;98.50
69533;DHT22;56729;52.036;5.332;2022-09-16T04:24:46;12.40;98.50
69533;DHT22;56729;52.036;5.332;2022-09-16T04:25:58;12.40;98.50
69533;DHT22;56729;52.036;5.332;2022-09-16T04:27:00;12.40;98.60
69533;DHT22;56729;52.036;5.332;2022-09-16T04:28:02;12.40;98.60
69533;DHT22;56729;52.036;5.332;2022-09-16T04:29:05;12.40;98.60
69533;DHT22;56729;52.036;5.332;2022-09-16T04:30:07;12.40;98.40
69533;DHT22;56729;52.036;5.332;2022-09-16T04:31:11;12.40;98.30
69533;DHT22;56729;52.036;5.332;2022-09-16T04:32:13;12.40;98.30
69533;DHT22;56729;52.036;5.332;2022-09-16T04:33:15;12.30;98.40
69533;DHT22;56729;52.036;5.332;2022-09-16T04:34:17;12.30;98.50
69533;DHT22;56729;52.036;5.332;2022-09-16T04:35:19;12.30;98.50
69533;DHT22;56729;52.036;5.332;2022-09-16T04:36:21;12.40;98.50
69533;DHT22;56729;52.036;5.332;2022-09-16T04:37:23;12.30;98.50
69533;DHT22;56729;52.036;5.332;2022-09-16T04:38:25;12.40;98.60
69533;DHT22;56729;52.036;5.332;2022-09-16T04:39:27;12.40;98.60
69533;DHT22;56729;52.036;5.332;2022-09-16T04:40:29;12.40;99.10
69533;DHT22;56729;52.036;5.332;2022-09-16T04:41:31;12.40;98.40
69533;DHT22;56729;52.036;5.332;2022-09-16T04:42:33;12.40;98.30
69533;DHT22;56729;52.036;5.332;2022-09-16T04:43:35;12.40;98.40
69533;DHT22;56729;52.036;5.332;2022-09-16T04:44:38;12.40;98.40
69533;DHT22;56729;52.036;5.332;2022-09-16T04:45:40;12.40;98.50
69533;DHT22;56729;52.036;5.332;2022-09-16T04:46:42;12.30;98.30
69533;DHT22;56729;52.036;5.332;2022-09-16T04:47:43;12.30;98.80
69533;DHT22;56729;52.036;5.332;2022-09-16T04:48:46;12.30;98.30
69533;DHT22;56729;52.036;5.332;2022-09-16T04:49:49;12.30;98.20
69533;DHT22;56729;52.036;5.332;2022-09-16T04:50:52;12.30;98.00
69533;DHT22;56729;52.036;5.332;2022-09-16T04:51:54;12.20;98.00
69533;DHT22;56729;52.036;5.332;2022-09-16T04:52:56;12.20;97.90
69533;DHT22;56729;52.036;5.332;2022-09-16T04:53:58;12.20;97.90
69533;DHT22;56729;52.036;5.332;2022-09-16T04:55:02;12.10;98.00
69533;DHT22;56729;52.036;5.332;2022-09-16T04:56:21;12.10;98.20
69533;DHT22;56729;52.036;5.332;2022-09-16T04:57:24;12.10;98.30
69533;DHT22;56729;52.036;5.332;2022-09-16T04:58:28;12.10;98.10
69533;DHT22;56729;52.036;5.332;2022-09-16T04:59:30;12.00;97.80
69533;DHT22;56729;52.036;5.332;2022-09-16T05:00:32;12.00;97.90
69533;DHT22;56729;52.036;5.332;2022-09-16T05:01:37;12.00;98.10
69533;DHT22;56729;52.036;5.332;2022-09-16T05:02:39;12.00;98.30
69533;DHT22;56729;52.036;5.332;2022-09-16T05:03:42;11.90;98.40
69533;DHT22;56729;52.036;5.332;2022-09-16T05:04:45;12.00;98.50
69533;DHT22;56729;52.036;5.332;2022-09-16T05:05:46;11.90;98.40
69533;DHT22;56729;52.036;5.332;2022-09-16T05:06:48;12.00;98.20
69533;DHT22;56729;52.036;5.332;2022-09-16T05:07:51;11.90;98.00
69533;DHT22;56729;52.036;5.332;2022-09-16T05:08:54;11.90;98.00
69533;DHT22;56729;52.036;5.332;2022-09-16T05:09:56;11.90;98.20
69533;DHT22;56729;52.036;5.332;2022-09-16T05:11:02;11.80;98.30
69533;DHT22;56729;52.036;5.332;2022-09-16T05:12:05;11.80;98.20
69533;DHT22;56729;52.036;5.332;2022-09-16T05:13:07;11.80;98.10
69533;DHT22;56729;52.036;5.332;2022-09-16T05:14:13;11.80;98.20
69533;DHT22;56729;52.036;5.332;2022-09-16T05:15:16;11.80;98.40
69533;DHT22;56729;52.036;5.332;2022-09-16T05:16:20;11.80;98.50
69533;DHT22;56729;52.036;5.332;2022-09-16T05:17:22;11.80;98.70
69533;DHT22;56729;52.036;5.332;2022-09-16T05:18:45;11.80;98.70
69533;DHT22;56729;52.036;5.332;2022-09-16T05:19:48;11.80;98.80
69533;DHT22;56729;52.036;5.332;2022-09-16T05:20:59;11.80;98.80
69533;DHT22;56729;52.036;5.332;2022-09-16T05:22:01;11.90;98.90
69533;DHT22;56729;52.036;5.332;2022-09-16T05:23:07;11.90;98.50
69533;DHT22;56729;52.036;5.332;2022-09-16T05:24:12;11.80;98.40
69533;DHT22;56729;52.036;5.332;2022-09-16T05:25:14;11.80;98.50
69533;DHT22;56729;52.036;5.332;2022-09-16T05:26:18;11.80;98.60
69533;DHT22;56729;52.036;5.332;2022-09-16T05:27:20;11.80;98.60
69533;DHT22;56729;52.036;5.332;2022-09-16T05:28:22;11.80;98.50
69533;DHT22;56729;52.036;5.332;2022-09-16T05:29:24;11.80;98.50
69533;DHT22;56729;52.036;5.332;2022-09-16T05:30:26;11.80;98.60
69533;DHT22;56729;52.036;5.332;2022-09-16T05:31:30;11.90;98.70
69533;DHT22;56729;52.036;5.332;2022-09-16T05:32:32;11.80;98.80
69533;DHT22;56729;52.036;5.332;2022-09-16T05:33:34;11.90;98.80
69533;DHT22;56729;52.036;5.332;2022-09-16T05:34:36;11.90;98.80
69533;DHT22;56729;52.036;5.332;2022-09-16T05:35:38;11.90;98.70
69533;DHT22;56729;52.036;5.332;2022-09-16T05:36:43;11.90;98.70
69533;DHT22;56729;52.036;5.332;2022-09-16T05:37:45;11.90;98.70
69533;DHT22;56729;52.036;5.332;2022-09-16T05:38:47;11.90;98.70
69533;DHT22;56729;52.036;5.332;2022-09-16T05:40:09;11.90;98.70
69533;DHT22;56729;52.036;5.332;2022-09-16T05:41:11;11.90;98.70
69533;DHT22;56729;52.036;5.332;2022-09-16T05:42:13;11.90;98.70
69533;DHT22;56729;52.036;5.332;2022-09-16T05:43:15;11.90;98.70
69533;DHT22;56729;52.036;5.332;2022-09-16T05:44:16;11.90;98.70
69533;DHT22;56729;52.036;5.332;2022-09-16T05:45:18;11.90;98.80
69533;DHT22;56729;52.036;5.332;2022-09-16T05:46:28;12.00;98.90
69533;DHT22;56729;52.036;5.332;2022-09-16T05:47:30;12.00;98.90
69533;DHT22;56729;52.036;5.332;2022-09-16T05:48:33;12.00;98.90
69533;DHT22;56729;52.036;5.332;2022-09-16T05:49:35;12.00;98.90
69533;DHT22;56729;52.036;5.332;2022-09-16T05:50:37;12.00;98.80
69533;DHT22;56729;52.036;5.332;2022-09-16T05:51:39;12.10;98.60
69533;DHT22;56729;52.036;5.332;2022-09-16T05:52:42;12.00;98.40
69533;DHT22;56729;52.036;5.332;2022-09-16T05:53:45;12.00;98.70
69533;DHT22;56729;52.036;5.332;2022-09-16T05:54:47;12.00;98.30
69533;DHT22;56729;52.036;5.332;2022-09-16T05:56:10;11.90;98.50
69533;DHT22;56729;52.036;5.332;2022-09-16T05:57:12;11.90;98.70
69533;DHT22;56729;52.036;5.332;2022-09-16T05:58:15;11.90;98.80
69533;DHT22;56729;52.036;5.332;2022-09-16T05:59:17;11.90;98.90
69533;DHT22;56729;52.036;5.332;2022-09-16T06:00:19;11.90;99.00
69533;DHT22;56729;52.036;5.332;2022-09-16T06:01:27;11.90;99.00
69533;DHT22;56729;52.036;5.332;2022-09-16T06:02:29;12.00;99.00
69533;DHT22;56729;52.036;5.332;2022-09-16T06:03:32;12.00;99.00
69533;DHT22;56729;52.036;5.332;2022-09-16T06:04:35;12.00;99.00
69533;DHT22;56729;52.036;5.332;2022-09-16T06:05:37;12.00;99.00
69533;DHT22;56729;52.036;5.332;2022-09-16T06:06:45;12.00;99.00
69533;DHT22;56729;52.036;5.332;2022-09-16T06:07:47;12.00;98.90
69533;DHT22;56729;52.036;5.332;2022-09-16T06:08:51;12.00;98.70
69533;DHT22;56729;52.036;5.332;2022-09-16T06:09:53;12.00;98.50
69533;DHT22;56729;52.036;5.332;2022-09-16T06:10:55;11.90;98.40
69533;DHT22;56729;52.036;5.332;2022-09-16T06:11:57;11.90;98.30
69533;DHT22;56729;52.036;5.332;2022-09-16T06:13:03;11.90;98.40
69533;DHT22;56729;52.036;5.332;2022-09-16T06:14:05;11.90;98.70
69533;DHT22;56729;52.036;5.332;2022-09-16T06:15:08;11.90;98.80
69533;DHT22;56729;52.036;5.332;2022-09-16T06:16:11;11.90;98.90
69533;DHT22;56729;52.036;5.332;2022-09-16T06:17:15;11.90;99.00
69533;DHT22;56729;52.036;5.332;2022-09-16T06:18:17;11.90;99.00
69533;DHT22;56729;52.036;5.332;2022-09-16T06:19:19;11.90;99.00
69533;DHT22;56729;52.036;5.332;2022-09-16T06:20:21;11.90;99.00
69533;DHT22;56729;52.036;5.332;2022-09-16T06:21:23;11.90;99.00
69533;DHT22;56729;52.036;5.332;2022-09-16T06:22:29;11.90;98.80
69533;DHT22;56729;52.036;5.332;2022-09-16T06:23:31;11.90;98.70
69533;DHT22;56729;52.036;5.332;2022-09-16T06:24:33;11.90;98.60
69533;DHT22;56729;52.036;5.332;2022-09-16T06:25:35;11.90;98.70
69533;DHT22;56729;52.036;5.332;2022-09-16T06:26:39;11.90;98.80
69533;DHT22;56729;52.036;5.332;2022-09-16T06:27:41;11.90;98.90
69533;DHT22;56729;52.036;5.332;2022-09-16T06:28:44;11.90;98.90
69533;DHT22;56729;52.036;5.332;2022-09-16T06:29:45;11.90;98.90
69533;DHT22;56729;52.036;5.332;2022-09-16T06:30:47;11.90;98.90
69533;DHT22;56729;52.036;5.332;2022-09-16T06:31:49;11.90;98.90
69533;DHT22;56729;52.036;5.332;2022-09-16T06:32:51;11.90;98.80
69533;DHT22;56729;52.036;5.332;2022-09-16T06:33:54;11.90;98.90
69533;DHT22;56729;52.036;5.332;2022-09-16T06:34:56;11.90;98.80
69533;DHT22;56729;52.036;5.332;2022-09-16T06:36:10;11.90;98.90
69533;DHT22;56729;52.036;5.332;2022-09-16T06:37:13;12.00;99.20
69533;DHT22;56729;52.036;5.332;2022-09-16T06:38:15;12.00;99.30
69533;DHT22;56729;52.036;5.332;2022-09-16T06:39:17;12.00;99.30
69533;DHT22;56729;52.036;5.332;2022-09-16T06:40:19;12.10;99.30
69533;DHT22;56729;52.036;5.332;2022-09-16T06:41:22;12.10;99.10
69533;DHT22;56729;52.036;5.332;2022-09-16T06:42:24;12.10;99.00
69533;DHT22;56729;52.036;5.332;2022-09-16T06:43:27;12.10;99.10
69533;DHT22;56729;52.036;5.332;2022-09-16T06:44:28;12.10;99.20
69533;DHT22;56729;52.036;5.332;2022-09-16T06:45:30;12.20;99.40
69533;DHT22;56729;52.036;5.332;2022-09-16T06:46:32;12.20;99.40
69533;DHT22;56729;52.036;5.332;2022-09-16T06:47:34;12.20;99.20
69533;DHT22;56729;52.036;5.332;2022-09-16T06:48:36;12.20;99.10
69533;DHT22;56729;52.036;5.332;2022-09-16T06:49:38;12.20;99.20
69533;DHT22;56729;52.036;5.332;2022-09-16T06:50:40;12.30;99.20
69533;DHT22;56729;52.036;5.332;2022-09-16T06:51:42;12.30;99.30
69533;DHT22;56729;52.036;5.332;2022-09-16T06:52:44;12.30;99.50
69533;DHT22;56729;52.036;5.332;2022-09-16T06:53:51;12.40;99.60
69533;DHT22;56729;52.036;5.332;2022-09-16T06:54:53;12.40;99.60
69533;DHT22;56729;52.036;5.332;2022-09-16T06:56:03;12.40;99.30
69533;DHT22;56729;52.036;5.332;2022-09-16T06:57:06;12.40;99.20
69533;DHT22;56729;52.036;5.332;2022-09-16T06:58:12;12.50;99.30
69533;DHT22;56729;52.036;5.332;2022-09-16T06:59:14;12.50;99.20
69533;DHT22;56729;52.036;5.332;2022-09-16T07:00:16;12.50;99.10
69533;DHT22;56729;52.036;5.332;2022-09-16T07:01:21;12.50;99.10
69533;DHT22;56729;52.036;5.332;2022-09-16T07:02:23;12.50;99.20
69533;DHT22;56729;52.036;5.332;2022-09-16T07:03:25;12.60;99.70
69533;DHT22;56729;52.036;5.332;2022-09-16T07:04:27;12.60;99.20
69533;DHT22;56729;52.036;5.332;2022-09-16T07:05:29;12.60;99.10
69533;DHT22;56729;52.036;5.332;2022-09-16T07:06:31;12.60;99.10
69533;DHT22;56729;52.036;5.332;2022-09-16T07:07:56;12.60;99.00
69533;DHT22;56729;52.036;5.332;2022-09-16T07:08:58;12.60;99.10
69533;DHT22;56729;52.036;5.332;2022-09-16T07:10:01;12.60;99.00
69533;DHT22;56729;52.036;5.332;2022-09-16T07:11:13;12.60;99.10
69533;DHT22;56729;52.036;5.332;2022-09-16T07:12:15;12.60;99.10
69533;DHT22;56729;52.036;5.332;2022-09-16T07:13:20;12.60;99.10
69533;DHT22;56729;52.036;5.332;2022-09-16T07:14:22;12.60;99.10
69533;DHT22;56729;52.036;5.332;2022-09-16T07:15:24;12.60;99.00
69533;DHT22;56729;52.036;5.332;2022-09-16T07:16:26;12.60;99.10
69533;DHT22;56729;52.036;5.332;2022-09-16T07:17:28;12.60;99.10
69533;DHT22;56729;52.036;5.332;2022-09-16T07:18:31;12.60;99.10
69533;DHT22;56729;52.036;5.332;2022-09-16T07:19:33;12.60;99.10
69533;DHT22;56729;52.036;5.332;2022-09-16T07:20:35;12.60;99.00
69533;DHT22;56729;52.036;5.332;2022-09-16T07:21:36;12.60;99.00
69533;DHT22;56729;52.036;5.332;2022-09-16T07:22:38;12.60;98.90
69533;DHT22;56729;52.036;5.332;2022-09-16T07:23:41;12.60;99.00
69533;DHT22;56729;52.036;5.332;2022-09-16T07:24:43;12.60;99.10
69533;DHT22;56729;52.036;5.332;2022-09-16T07:25:46;12.60;99.00
69533;DHT22;56729;52.036;5.332;2022-09-16T07:26:48;12.60;99.50
69533;DHT22;56729;52.036;5.332;2022-09-16T07:27:50;12.60;99.00
69533;DHT22;56729;52.036;5.332;2022-09-16T07:28:53;12.60;99.10